Terminal Aerodrome Forecast
Issued by NWS Duluth, MN

Home | Current Version | Previous Version | Text Only | Print | Product List | Glossary On
Versions: 1 2 3 4 5 6 7 8 9 10 11 12 13 14 15 16 17 18 19 20 21 22 23 24 25 26 27 28
647
FTUS43 KDLH 232009 AAA
TAFINL
TAF AMD
KINL 232009Z 2320/2418 19009KT 5SM -SN OVC040
     FM240300 20006KT P6SM -RA OVC015
     FM240600 VRB03KT P6SM OVC015
     FM240900 35008KT P6SM BKN025=

USA.gov is the U.S. government's official web portal to all federal, state and local government web resources and services.